Isis — PHLD — position and weather

sailwx.info

Track history (hours):
 
Tides and Currents Weather Stations Pressure Air Temp Water Temp Dewpoint Dewpoint Depression Visibility Wind Speed Wind Dir Waves Ship Positions

Isis

Last reported at 2018-Jan-21 02:55 UTC. Time now 2018-Jan-22 14:05 UTC.
Position N 60°18' E 019°01'.

Length 111 m; draft 6.3 m.

Type: Ship. MMSI: 244768000.

Date/timePositionNaut miles runAvg speedWind from/ knotsBaromVisibWave heightAir tempDewpointWater temp
2018-Jan-21 02:55N 60°18' E 019°01'511.6
2018-Jan-21 02:30N 60°14' E 019°04'611.2
2018-Jan-21 02:00N 60°09' E 019°11'611.5
2018-Jan-21 01:30N 60°05' E 019°18'611.8
2018-Jan-21 01:00N 60°00' E 019°26'611.4
2018-Jan-21 00:30N 59°56' E 019°33'611.2
2018-Jan-20 23:59N 59°51' E 019°40'26010.7
2018-Jan-19 23:40N 55°54' E 016°21'211.4
2018-Jan-19 23:30N 55°53' E 016°18'611.4
2018-Jan-19 23:00N 55°51' E 016°09'611.4
2018-Jan-19 22:30N 55°48' E 015°60'611.6
2018-Jan-19 22:00N 55°45' E 015°51'611.6
2018-Jan-19 21:30N 55°42' E 015°42'611.5
2018-Jan-19 21:00N 55°40' E 015°33'611.6
2018-Jan-19 20:30N 55°37' E 015°24'611.6
2018-Jan-19 20:00N 55°34' E 015°15'611.7
2018-Jan-19 19:30N 55°31' E 015°06'611.6
2018-Jan-19 19:00N 55°28' E 014°57'611.5
2018-Jan-19 18:30N 55°26' E 014°48'611.6
2018-Jan-19 18:00N 55°23' E 014°39'611.6
2018-Jan-19 17:30N 55°18' E 014°33'611.6
2018-Jan-19 17:00N 55°14' E 014°27'611.6
2018-Jan-19 16:30N 55°09' E 014°20'611.4
2018-Jan-19 16:00N 55°04' E 014°14'2111.3
2018-Jan-19 14:10N 54°55' E 013°42'4411.4
2018-Jan-19 10:16N 54°38' E 012°31'311.5
2018-Jan-19 10:00N 54°36' E 012°27'611.6
2018-Jan-19 09:30N 54°32' E 012°20'611.5
2018-Jan-19 09:00N 54°28' E 012°14'2711.1
2018-Jan-19 06:34N 54°30' E 011°28'211.9
2018-Jan-19 06:25N 54°31' E 011°25'511.6
2018-Jan-19 06:00N 54°33' E 011°18'611.3
2018-Jan-19 05:30N 54°35' E 011°09'611.8
2018-Jan-19 05:00N 54°35' E 010°59'611.5
2018-Jan-19 04:30N 54°34' E 010°49'611.5
2018-Jan-19 04:00N 54°34' E 010°39'611.5
2018-Jan-19 03:30N 54°32' E 010°29'24 3.4
2018-Jan-18 20:22N 54°22' E 009°51'3 8.5
2018-Jan-18 20:00N 54°21' E 009°46'4 8.5
2018-Jan-18 19:31N 54°18' E 009°42'4 7.9
2018-Jan-18 19:01N 54°15' E 009°37'4 7.8
2018-Jan-18 18:31N 54°12' E 009°33'4 8.8
2018-Jan-18 18:01N 54°10' E 009°26'4 8.3
2018-Jan-18 17:30N 54°08' E 009°20'4 8.4
2018-Jan-18 16:59N 54°04' E 009°19'1 2.1
2018-Jan-18 16:27N 54°02' E 009°18'0 0.2
2018-Jan-18 15:57N 54°02' E 009°18'3 5.8
2018-Jan-18 15:30N 53°60' E 009°17'4 7.7
2018-Jan-18 15:00N 53°57' E 009°14'4 7.8
2018-Jan-18 14:30N 53°54' E 009°09'0 0.6
2018-Jan-18 14:00N 53°54' E 009°09'0 0.0
2018-Jan-18 13:31N 53°54' E 009°09'1 2.8
2018-Jan-18 13:00N 53°53' E 009°07'0 0.6
2018-Jan-18 12:31N 53°53' E 009°07'2 4.3
2018-Jan-18 11:59N 53°53' E 009°11'0 0.0
2018-Jan-18 11:29N 53°53' E 009°11'0 0.0
2018-Jan-18 10:59N 53°53' E 009°11'0 0.0
2018-Jan-18 10:29N 53°53' E 009°11'0 0.0
2018-Jan-18 09:58N 53°53' E 009°11'0 0.0
2018-Jan-18 09:28N 53°53' E 009°11'0 0.0
2018-Jan-18 08:58N 53°53' E 009°11'0 0.0
2018-Jan-18 08:28N 53°53' E 009°11'0 0.0
2018-Jan-18 08:00N 53°53' E 009°11'0 0.0
2018-Jan-18 07:24N 53°53' E 009°11'0 0.0
2018-Jan-18 07:00N 53°53' E 009°11'0 0.0
2018-Jan-18 06:30N 53°53' E 009°11'0 0.0
2018-Jan-18 06:00N 53°53' E 009°11'0 0.0
2018-Jan-18 05:29N 53°53' E 009°11'0 0.0
2018-Jan-18 04:59N 53°53' E 009°11'0 0.0
2018-Jan-18 04:26N 53°53' E 009°11'0 0.0
2018-Jan-18 03:58N 53°53' E 009°11'0 0.0
2018-Jan-18 03:28N 53°53' E 009°11'0 0.0
2018-Jan-18 02:58N 53°53' E 009°11'0 0.0
2018-Jan-18 02:25N 53°53' E 009°11'0 0.0
2018-Jan-18 01:55N 53°53' E 009°11'0 0.0
2018-Jan-18 01:30N 53°53' E 009°11'0 0.0
2018-Jan-18 01:00N 53°53' E 009°11'0 0.0
2018-Jan-17 23:57N 53°53' E 009°11'  
2018-Jan-12 14:57N 53°53' E 009°08'0 0.0
2018-Jan-12 14:30N 53°53' E 009°08'0 0.1
2018-Jan-12 13:57N 53°53' E 009°08'0 0.1
2018-Jan-12 13:26N 53°53' E 009°08'0 0.0
2018-Jan-12 12:59N 53°53' E 009°08'0 0.0
2018-Jan-12 12:29N 53°53' E 009°08'0 0.0
2018-Jan-12 11:56N 53°53' E 009°08'0 0.0
2018-Jan-12 11:29N 53°53' E 009°08'0 0.0
2018-Jan-12 10:58N 53°53' E 009°08'0 0.0
2018-Jan-12 10:28N 53°53' E 009°08'0 0.2
2018-Jan-12 09:58N 53°53' E 009°09'0 0.1
2018-Jan-12 09:30N 53°53' E 009°09'0 0.1
2018-Jan-12 09:00N 53°53' E 009°09'0 0.1
2018-Jan-12 08:30N 53°53' E 009°09'0 0.0
2018-Jan-12 08:00N 53°53' E 009°09'0 0.0
2018-Jan-12 07:30N 53°53' E 009°09'0 0.0
2018-Jan-12 06:59N 53°53' E 009°09'0 0.0
2018-Jan-12 06:26N 53°53' E 009°09'0 0.0
2018-Jan-12 05:59N 53°53' E 009°09'0 0.1
2018-Jan-12 05:29N 53°53' E 009°09'0 0.2
2018-Jan-12 04:59N 53°53' E 009°08'0 0.1
2018-Jan-12 04:29N 53°53' E 009°08'0 0.0
2018-Jan-12 03:55N 53°53' E 009°08'0 0.0
2018-Jan-12 03:28N 53°53' E 009°08'0 0.0
2018-Jan-12 02:58N 53°53' E 009°08'0 0.0
2018-Jan-12 02:24N 53°53' E 009°08'0 0.0
2018-Jan-12 02:00N 53°53' E 009°08'0 0.0
2018-Jan-12 01:27N 53°53' E 009°08'0 0.0
2018-Jan-12 00:54N 53°53' E 009°08'0 0.0
2018-Jan-12 00:30N 53°53' E 009°08'0 0.0
2018-Jan-12 00:00N 53°53' E 009°08'0 0.0
2018-Jan-11 23:26N 53°53' E 009°08'0 0.1
2018-Jan-11 22:56N 53°53' E 009°08'0 0.0
2018-Jan-11 22:29N 53°53' E 009°08'0 0.2
2018-Jan-11 21:59N 53°53' E 009°09'0 0.0
2018-Jan-11 21:25N 53°53' E 009°09'0 0.0
2018-Jan-11 20:55N 53°53' E 009°09'0 0.0
2018-Jan-11 20:25N 53°53' E 009°09'0 0.0
2018-Jan-11 19:58N 53°53' E 009°09'0 0.0
2018-Jan-11 19:28N 53°53' E 009°09'0 0.0
2018-Jan-11 19:01N 53°53' E 009°09'0 0.0
2018-Jan-11 18:30N 53°53' E 009°09'0 0.0
2018-Jan-11 18:00N 53°53' E 009°09'0 0.0
2018-Jan-11 17:30N 53°53' E 009°09'0 0.1
2018-Jan-11 16:57N 53°53' E 009°09'0 0.1
2018-Jan-11 16:29N 53°53' E 009°08'0 0.2
2018-Jan-11 15:53N 53°53' E 009°08'0 0.0
2018-Jan-11 15:29N 53°53' E 009°08'0 0.0
2018-Jan-11 14:58N 53°53' E 009°08'0 0.0
2018-Jan-11 14:28N 53°53' E 009°08'0 0.0
2018-Jan-11 13:58N 53°53' E 009°08'0 0.0
2018-Jan-11 13:28N 53°53' E 009°08'0 0.0
2018-Jan-11 12:58N 53°53' E 009°08'0 0.0
2018-Jan-11 12:27N 53°53' E 009°08'0 0.0
2018-Jan-11 12:00N 53°53' E 009°08'0 0.0
2018-Jan-11 11:28N 53°53' E 009°08'0 0.0
2018-Jan-11 10:58N 53°53' E 009°08'0 0.0
2018-Jan-11 10:28N 53°53' E 009°08'0 0.0
2018-Jan-11 10:01N 53°53' E 009°08'0 0.2
2018-Jan-11 09:24N 53°53' E 009°09'0 0.2
2018-Jan-11 09:00N 53°53' E 009°09'0 0.0
2018-Jan-11 08:30N 53°53' E 009°09'0 0.0
2018-Jan-11 07:59N 53°53' E 009°09'0 0.1
2018-Jan-11 07:23N 53°53' E 009°09'0 0.1
2018-Jan-11 06:59N 53°53' E 009°09'0 0.1
2018-Jan-11 06:29N 53°53' E 009°09'0 0.0
2018-Jan-11 05:59N 53°53' E 009°09'0 0.0
2018-Jan-11 05:29N 53°53' E 009°09'0 0.0
2018-Jan-11 04:58N 53°53' E 009°09'0 0.0
2018-Jan-11 04:28N 53°53' E 009°09'0 0.0
2018-Jan-11 03:58N 53°53' E 009°09'0 0.3
2018-Jan-11 03:30N 53°53' E 009°08'0 0.0
2018-Jan-11 03:00N 53°53' E 009°08'  
Track history (hours):
 
Tides and Currents Weather Stations Pressure Air Temp Water Temp Dewpoint Dewpoint Depression Visibility Wind Speed Wind Dir Waves Ship Positions

Isis

Last reported at 2018-Jan-21 02:55 UTC. Time now 2018-Jan-22 14:05 UTC.
Position N 60°18' E 019°01'.

Length 111 m; draft 6.3 m.

Type: Ship. MMSI: 244768000.

Date/timePositionNaut miles runAvg speedWind from/ knotsBaromVisibWave heightAir tempDewpointWater temp
2018-Jan-21 02:55N 60°18' E 019°01'511.6
2018-Jan-21 02:30N 60°14' E 019°04'611.2
2018-Jan-21 02:00N 60°09' E 019°11'611.5
2018-Jan-21 01:30N 60°05' E 019°18'611.8
2018-Jan-21 01:00N 60°00' E 019°26'611.4
2018-Jan-21 00:30N 59°56' E 019°33'611.2
2018-Jan-20 23:59N 59°51' E 019°40'26010.7
2018-Jan-19 23:40N 55°54' E 016°21'211.4
2018-Jan-19 23:30N 55°53' E 016°18'611.4
2018-Jan-19 23:00N 55°51' E 016°09'611.4
2018-Jan-19 22:30N 55°48' E 015°60'611.6
2018-Jan-19 22:00N 55°45' E 015°51'611.6
2018-Jan-19 21:30N 55°42' E 015°42'611.5
2018-Jan-19 21:00N 55°40' E 015°33'611.6
2018-Jan-19 20:30N 55°37' E 015°24'611.6
2018-Jan-19 20:00N 55°34' E 015°15'611.7
2018-Jan-19 19:30N 55°31' E 015°06'611.6
2018-Jan-19 19:00N 55°28' E 014°57'611.5
2018-Jan-19 18:30N 55°26' E 014°48'611.6
2018-Jan-19 18:00N 55°23' E 014°39'611.6
2018-Jan-19 17:30N 55°18' E 014°33'611.6
2018-Jan-19 17:00N 55°14' E 014°27'611.6
2018-Jan-19 16:30N 55°09' E 014°20'611.4
2018-Jan-19 16:00N 55°04' E 014°14'2111.3
2018-Jan-19 14:10N 54°55' E 013°42'4411.4
2018-Jan-19 10:16N 54°38' E 012°31'311.5
2018-Jan-19 10:00N 54°36' E 012°27'611.6
2018-Jan-19 09:30N 54°32' E 012°20'611.5
2018-Jan-19 09:00N 54°28' E 012°14'2711.1
2018-Jan-19 06:34N 54°30' E 011°28'211.9
2018-Jan-19 06:25N 54°31' E 011°25'511.6
2018-Jan-19 06:00N 54°33' E 011°18'611.3
2018-Jan-19 05:30N 54°35' E 011°09'611.8
2018-Jan-19 05:00N 54°35' E 010°59'611.5
2018-Jan-19 04:30N 54°34' E 010°49'611.5
2018-Jan-19 04:00N 54°34' E 010°39'611.5
2018-Jan-19 03:30N 54°32' E 010°29'24 3.4
2018-Jan-18 20:22N 54°22' E 009°51'3 8.5
2018-Jan-18 20:00N 54°21' E 009°46'4 8.5
2018-Jan-18 19:31N 54°18' E 009°42'4 7.9
2018-Jan-18 19:01N 54°15' E 009°37'4 7.8
2018-Jan-18 18:31N 54°12' E 009°33'4 8.8
2018-Jan-18 18:01N 54°10' E 009°26'4 8.3
2018-Jan-18 17:30N 54°08' E 009°20'4 8.4
2018-Jan-18 16:59N 54°04' E 009°19'1 2.1
2018-Jan-18 16:27N 54°02' E 009°18'0 0.2
2018-Jan-18 15:57N 54°02' E 009°18'3 5.8
2018-Jan-18 15:30N 53°60' E 009°17'4 7.7
2018-Jan-18 15:00N 53°57' E 009°14'4 7.8
2018-Jan-18 14:30N 53°54' E 009°09'0 0.6
2018-Jan-18 14:00N 53°54' E 009°09'0 0.0
2018-Jan-18 13:31N 53°54' E 009°09'1 2.8
2018-Jan-18 13:00N 53°53' E 009°07'0 0.6
2018-Jan-18 12:31N 53°53' E 009°07'2 4.3
2018-Jan-18 11:59N 53°53' E 009°11'0 0.0
2018-Jan-18 11:29N 53°53' E 009°11'0 0.0
2018-Jan-18 10:59N 53°53' E 009°11'0 0.0
2018-Jan-18 10:29N 53°53' E 009°11'0 0.0
2018-Jan-18 09:58N 53°53' E 009°11'0 0.0
2018-Jan-18 09:28N 53°53' E 009°11'0 0.0
2018-Jan-18 08:58N 53°53' E 009°11'0 0.0
2018-Jan-18 08:28N 53°53' E 009°11'0 0.0
2018-Jan-18 08:00N 53°53' E 009°11'0 0.0
2018-Jan-18 07:24N 53°53' E 009°11'0 0.0
2018-Jan-18 07:00N 53°53' E 009°11'0 0.0
2018-Jan-18 06:30N 53°53' E 009°11'0 0.0
2018-Jan-18 06:00N 53°53' E 009°11'0 0.0
2018-Jan-18 05:29N 53°53' E 009°11'0 0.0
2018-Jan-18 04:59N 53°53' E 009°11'0 0.0
2018-Jan-18 04:26N 53°53' E 009°11'0 0.0
2018-Jan-18 03:58N 53°53' E 009°11'0 0.0
2018-Jan-18 03:28N 53°53' E 009°11'0 0.0
2018-Jan-18 02:58N 53°53' E 009°11'0 0.0
2018-Jan-18 02:25N 53°53' E 009°11'0 0.0
2018-Jan-18 01:55N 53°53' E 009°11'0 0.0
2018-Jan-18 01:30N 53°53' E 009°11'0 0.0
2018-Jan-18 01:00N 53°53' E 009°11'0 0.0
2018-Jan-17 23:57N 53°53' E 009°11'  
2018-Jan-12 14:57N 53°53' E 009°08'0 0.0
2018-Jan-12 14:30N 53°53' E 009°08'0 0.1
2018-Jan-12 13:57N 53°53' E 009°08'0 0.1
2018-Jan-12 13:26N 53°53' E 009°08'0 0.0
2018-Jan-12 12:59N 53°53' E 009°08'0 0.0
2018-Jan-12 12:29N 53°53' E 009°08'0 0.0
2018-Jan-12 11:56N 53°53' E 009°08'0 0.0
2018-Jan-12 11:29N 53°53' E 009°08'0 0.0
2018-Jan-12 10:58N 53°53' E 009°08'0 0.0
2018-Jan-12 10:28N 53°53' E 009°08'0 0.2
2018-Jan-12 09:58N 53°53' E 009°09'0 0.1
2018-Jan-12 09:30N 53°53' E 009°09'0 0.1
2018-Jan-12 09:00N 53°53' E 009°09'0 0.1
2018-Jan-12 08:30N 53°53' E 009°09'0 0.0
2018-Jan-12 08:00N 53°53' E 009°09'0 0.0
2018-Jan-12 07:30N 53°53' E 009°09'0 0.0
2018-Jan-12 06:59N 53°53' E 009°09'0 0.0
2018-Jan-12 06:26N 53°53' E 009°09'0 0.0
2018-Jan-12 05:59N 53°53' E 009°09'0 0.1
2018-Jan-12 05:29N 53°53' E 009°09'0 0.2
2018-Jan-12 04:59N 53°53' E 009°08'0 0.1
2018-Jan-12 04:29N 53°53' E 009°08'0 0.0
2018-Jan-12 03:55N 53°53' E 009°08'0 0.0
2018-Jan-12 03:28N 53°53' E 009°08'0 0.0
2018-Jan-12 02:58N 53°53' E 009°08'0 0.0
2018-Jan-12 02:24N 53°53' E 009°08'0 0.0
2018-Jan-12 02:00N 53°53' E 009°08'0 0.0
2018-Jan-12 01:27N 53°53' E 009°08'0 0.0
2018-Jan-12 00:54N 53°53' E 009°08'0 0.0
2018-Jan-12 00:30N 53°53' E 009°08'0 0.0
2018-Jan-12 00:00N 53°53' E 009°08'0 0.0
2018-Jan-11 23:26N 53°53' E 009°08'0 0.1
2018-Jan-11 22:56N 53°53' E 009°08'0 0.0
2018-Jan-11 22:29N 53°53' E 009°08'0 0.2
2018-Jan-11 21:59N 53°53' E 009°09'0 0.0
2018-Jan-11 21:25N 53°53' E 009°09'0 0.0
2018-Jan-11 20:55N 53°53' E 009°09'0 0.0
2018-Jan-11 20:25N 53°53' E 009°09'0 0.0
2018-Jan-11 19:58N 53°53' E 009°09'0 0.0
2018-Jan-11 19:28N 53°53' E 009°09'0 0.0
2018-Jan-11 19:01N 53°53' E 009°09'0 0.0
2018-Jan-11 18:30N 53°53' E 009°09'0 0.0
2018-Jan-11 18:00N 53°53' E 009°09'0 0.0
2018-Jan-11 17:30N 53°53' E 009°09'0 0.1
2018-Jan-11 16:57N 53°53' E 009°09'0 0.1
2018-Jan-11 16:29N 53°53' E 009°08'0 0.2
2018-Jan-11 15:53N 53°53' E 009°08'0 0.0
2018-Jan-11 15:29N 53°53' E 009°08'0 0.0
2018-Jan-11 14:58N 53°53' E 009°08'0 0.0
2018-Jan-11 14:28N 53°53' E 009°08'0 0.0
2018-Jan-11 13:58N 53°53' E 009°08'0 0.0
2018-Jan-11 13:28N 53°53' E 009°08'0 0.0
2018-Jan-11 12:58N 53°53' E 009°08'0 0.0
2018-Jan-11 12:27N 53°53' E 009°08'0 0.0
2018-Jan-11 12:00N 53°53' E 009°08'0 0.0
2018-Jan-11 11:28N 53°53' E 009°08'0 0.0
2018-Jan-11 10:58N 53°53' E 009°08'0 0.0
2018-Jan-11 10:28N 53°53' E 009°08'0 0.0
2018-Jan-11 10:01N 53°53' E 009°08'0 0.2
2018-Jan-11 09:24N 53°53' E 009°09'0 0.2
2018-Jan-11 09:00N 53°53' E 009°09'0 0.0
2018-Jan-11 08:30N 53°53' E 009°09'0 0.0
2018-Jan-11 07:59N 53°53' E 009°09'0 0.1
2018-Jan-11 07:23N 53°53' E 009°09'0 0.1
2018-Jan-11 06:59N 53°53' E 009°09'0 0.1
2018-Jan-11 06:29N 53°53' E 009°09'0 0.0
2018-Jan-11 05:59N 53°53' E 009°09'0 0.0
2018-Jan-11 05:29N 53°53' E 009°09'0 0.0
2018-Jan-11 04:58N 53°53' E 009°09'0 0.0
2018-Jan-11 04:28N 53°53' E 009°09'0 0.0
2018-Jan-11 03:58N 53°53' E 009°09'0 0.3
2018-Jan-11 03:30N 53°53' E 009°08'0 0.0
2018-Jan-11 03:00N 53°53' E 009°08'  

Dump ship's entire track history